sensor_id;sensor_type;location;lat;lon;timestamp;pressure;altitude;pressure_sealevel;temperature
20289;BMP180;10303;51.960;8.372;2022-09-09T00:02:20;99785.00;;;19.10
20289;BMP180;10303;51.960;8.372;2022-09-09T00:05:16;99788.00;;;19.10
20289;BMP180;10303;51.960;8.372;2022-09-09T00:07:52;99780.00;;;19.10
20289;BMP180;10303;51.960;8.372;2022-09-09T00:10:38;99777.00;;;19.20
20289;BMP180;10303;51.960;8.372;2022-09-09T00:13:41;99785.00;;;19.20
20289;BMP180;10303;51.960;8.372;2022-09-09T00:16:27;99771.00;;;19.20
20289;BMP180;10303;51.960;8.372;2022-09-09T00:19:24;99775.00;;;19.20
20289;BMP180;10303;51.960;8.372;2022-09-09T00:22:22;99786.00;;;19.20
20289;BMP180;10303;51.960;8.372;2022-09-09T00:25:19;99787.00;;;19.30
20289;BMP180;10303;51.960;8.372;2022-09-09T00:27:49;99792.00;;;19.30
20289;BMP180;10303;51.960;8.372;2022-09-09T00:30:26;99798.00;;;19.30
20289;BMP180;10303;51.960;8.372;2022-09-09T00:33:01;99787.00;;;19.30
20289;BMP180;10303;51.960;8.372;2022-09-09T00:35:37;99794.00;;;19.30
20289;BMP180;10303;51.960;8.372;2022-09-09T00:38:16;99796.00;;;19.30
20289;BMP180;10303;51.960;8.372;2022-09-09T00:41:17;99782.00;;;19.30
20289;BMP180;10303;51.960;8.372;2022-09-09T00:46:36;99786.00;;;19.40
20289;BMP180;10303;51.960;8.372;2022-09-09T00:49:52;99789.00;;;19.30
20289;BMP180;10303;51.960;8.372;2022-09-09T00:56:11;99788.00;;;19.40
20289;BMP180;10303;51.960;8.372;2022-09-09T00:58:38;99791.00;;;19.50
20289;BMP180;10303;51.960;8.372;2022-09-09T01:01:14;99780.00;;;19.40
20289;BMP180;10303;51.960;8.372;2022-09-09T01:03:54;99774.00;;;19.50
20289;BMP180;10303;51.960;8.372;2022-09-09T01:06:34;99785.00;;;19.50
20289;BMP180;10303;51.960;8.372;2022-09-09T01:09:36;99782.00;;;19.50
20289;BMP180;10303;51.960;8.372;2022-09-09T01:12:17;99783.00;;;19.50
20289;BMP180;10303;51.960;8.372;2022-09-09T01:14:52;99783.00;;;19.60
20289;BMP180;10303;51.960;8.372;2022-09-09T01:17:36;99780.00;;;19.60
20289;BMP180;10303;51.960;8.372;2022-09-09T01:20:14;99771.00;;;19.60
20289;BMP180;10303;51.960;8.372;2022-09-09T01:29:04;99775.00;;;19.70
20289;BMP180;10303;51.960;8.372;2022-09-09T01:31:57;99774.00;;;19.60
20289;BMP180;10303;51.960;8.372;2022-09-09T01:34:32;99778.00;;;19.70
20289;BMP180;10303;51.960;8.372;2022-09-09T01:37:07;99768.00;;;19.70
20289;BMP180;10303;51.960;8.372;2022-09-09T01:39:39;99783.00;;;19.70
20289;BMP180;10303;51.960;8.372;2022-09-09T01:42:15;99785.00;;;19.70
20289;BMP180;10303;51.960;8.372;2022-09-09T01:44:42;99768.00;;;19.80
20289;BMP180;10303;51.960;8.372;2022-09-09T01:47:08;99779.00;;;19.80
20289;BMP180;10303;51.960;8.372;2022-09-09T01:49:43;99774.00;;;19.80
20289;BMP180;10303;51.960;8.372;2022-09-09T01:52:19;99767.00;;;19.80
20289;BMP180;10303;51.960;8.372;2022-09-09T01:54:45;99774.00;;;19.80
20289;BMP180;10303;51.960;8.372;2022-09-09T01:57:31;99780.00;;;19.70
20289;BMP180;10303;51.960;8.372;2022-09-09T02:00:10;99778.00;;;19.70
20289;BMP180;10303;51.960;8.372;2022-09-09T02:03:12;99782.00;;;19.70
20289;BMP180;10303;51.960;8.372;2022-09-09T02:06:09;99784.00;;;19.70
20289;BMP180;10303;51.960;8.372;2022-09-09T02:08:50;99775.00;;;19.70
20289;BMP180;10303;51.960;8.372;2022-09-09T02:11:25;99779.00;;;19.70
20289;BMP180;10303;51.960;8.372;2022-09-09T02:14:16;99778.00;;;19.60
20289;BMP180;10303;51.960;8.372;2022-09-09T02:16:58;99773.00;;;19.70
20289;BMP180;10303;51.960;8.372;2022-09-09T02:19:45;99770.00;;;19.70
20289;BMP180;10303;51.960;8.372;2022-09-09T02:22:34;99775.00;;;19.70
20289;BMP180;10303;51.960;8.372;2022-09-09T02:25:04;99772.00;;;19.70
20289;BMP180;10303;51.960;8.372;2022-09-09T02:27:33;99761.00;;;19.70
20289;BMP180;10303;51.960;8.372;2022-09-09T02:30:02;99774.00;;;19.70
20289;BMP180;10303;51.960;8.372;2022-09-09T02:32:45;99777.00;;;19.70
20289;BMP180;10303;51.960;8.372;2022-09-09T02:35:19;99774.00;;;19.70
20289;BMP180;10303;51.960;8.372;2022-09-09T02:37:48;99774.00;;;19.70
20289;BMP180;10303;51.960;8.372;2022-09-09T02:40:17;99780.00;;;19.70
20289;BMP180;10303;51.960;8.372;2022-09-09T02:42:48;99781.00;;;19.70
20289;BMP180;10303;51.960;8.372;2022-09-09T02:45:22;99786.00;;;19.70
20289;BMP180;10303;51.960;8.372;2022-09-09T02:51:15;99779.00;;;19.70
20289;BMP180;10303;51.960;8.372;2022-09-09T02:54:27;99779.00;;;19.60
20289;BMP180;10303;51.960;8.372;2022-09-09T02:57:23;99779.00;;;19.60
20289;BMP180;10303;51.960;8.372;2022-09-09T02:59:50;99775.00;;;19.70
20289;BMP180;10303;51.960;8.372;2022-09-09T03:02:18;99778.00;;;19.70
20289;BMP180;10303;51.960;8.372;2022-09-09T03:04:50;99779.00;;;19.60
20289;BMP180;10303;51.960;8.372;2022-09-09T03:07:20;99785.00;;;19.60
20289;BMP180;10303;51.960;8.372;2022-09-09T03:09:48;99790.00;;;19.60
20289;BMP180;10303;51.960;8.372;2022-09-09T03:12:15;99787.00;;;19.60
20289;BMP180;10303;51.960;8.372;2022-09-09T03:14:42;99783.00;;;19.60
20289;BMP180;10303;51.960;8.372;2022-09-09T03:17:12;99788.00;;;19.60
20289;BMP180;10303;51.960;8.372;2022-09-09T03:19:45;99782.00;;;19.60
20289;BMP180;10303;51.960;8.372;2022-09-09T03:22:12;99788.00;;;19.60
20289;BMP180;10303;51.960;8.372;2022-09-09T03:24:41;99783.00;;;19.60
20289;BMP180;10303;51.960;8.372;2022-09-09T03:27:07;99778.00;;;19.60
20289;BMP180;10303;51.960;8.372;2022-09-09T03:29:36;99781.00;;;19.60
20289;BMP180;10303;51.960;8.372;2022-09-09T03:32:05;99788.00;;;19.60
20289;BMP180;10303;51.960;8.372;2022-09-09T03:34:31;99783.00;;;19.60
20289;BMP180;10303;51.960;8.372;2022-09-09T03:36:58;99781.00;;;19.60
20289;BMP180;10303;51.960;8.372;2022-09-09T03:39:24;99773.00;;;19.60
20289;BMP180;10303;51.960;8.372;2022-09-09T03:41:50;99786.00;;;19.60
20289;BMP180;10303;51.960;8.372;2022-09-09T03:44:18;99779.00;;;19.60
20289;BMP180;10303;51.960;8.372;2022-09-09T03:46:44;99785.00;;;19.60
20289;BMP180;10303;51.960;8.372;2022-09-09T03:49:10;99782.00;;;19.60
20289;BMP180;10303;51.960;8.372;2022-09-09T03:51:36;99771.00;;;19.60
20289;BMP180;10303;51.960;8.372;2022-09-09T03:54:02;99775.00;;;19.60
20289;BMP180;10303;51.960;8.372;2022-09-09T03:56:31;99772.00;;;19.60
20289;BMP180;10303;51.960;8.372;2022-09-09T03:58:58;99770.00;;;19.60
20289;BMP180;10303;51.960;8.372;2022-09-09T04:01:27;99769.00;;;19.60
20289;BMP180;10303;51.960;8.372;2022-09-09T04:03:53;99771.00;;;19.60
20289;BMP180;10303;51.960;8.372;2022-09-09T04:06:20;99772.00;;;19.70
20289;BMP180;10303;51.960;8.372;2022-09-09T04:08:47;99780.00;;;19.70
20289;BMP180;10303;51.960;8.372;2022-09-09T04:11:16;99788.00;;;19.60
20289;BMP180;10303;51.960;8.372;2022-09-09T04:13:44;99781.00;;;19.70
20289;BMP180;10303;51.960;8.372;2022-09-09T04:16:13;99780.00;;;19.60
20289;BMP180;10303;51.960;8.372;2022-09-09T04:18:49;99774.00;;;19.60
20289;BMP180;10303;51.960;8.372;2022-09-09T04:37:50;99781.00;;;19.50
20289;BMP180;10303;51.960;8.372;2022-09-09T04:43:08;99782.00;;;19.50
20289;BMP180;10303;51.960;8.372;2022-09-09T04:47:15;99788.00;;;19.50
20289;BMP180;10303;51.960;8.372;2022-09-09T04:49:49;99792.00;;;19.50
20289;BMP180;10303;51.960;8.372;2022-09-09T04:52:23;99777.00;;;19.50
20289;BMP180;10303;51.960;8.372;2022-09-09T04:59:42;99778.00;;;19.50
20289;BMP180;10303;51.960;8.372;2022-09-09T05:02:22;99785.00;;;19.50
20289;BMP180;10303;51.960;8.372;2022-09-09T05:04:58;99788.00;;;19.60
20289;BMP180;10303;51.960;8.372;2022-09-09T05:07:27;99796.00;;;19.60
20289;BMP180;10303;51.960;8.372;2022-09-09T05:10:23;99788.00;;;19.60
20289;BMP180;10303;51.960;8.372;2022-09-09T05:13:45;99782.00;;;19.50
20289;BMP180;10303;51.960;8.372;2022-09-09T05:23:22;99809.00;;;19.50
20289;BMP180;10303;51.960;8.372;2022-09-09T05:25:57;99820.00;;;19.50
20289;BMP180;10303;51.960;8.372;2022-09-09T05:28:27;99800.00;;;19.60
20289;BMP180;10303;51.960;8.372;2022-09-09T05:31:03;99804.00;;;19.60
20289;BMP180;10303;51.960;8.372;2022-09-09T05:33:35;99785.00;;;19.50
20289;BMP180;10303;51.960;8.372;2022-09-09T05:36:07;99787.00;;;19.60
20289;BMP180;10303;51.960;8.372;2022-09-09T05:38:36;99791.00;;;19.60
20289;BMP180;10303;51.960;8.372;2022-09-09T05:41:10;99795.00;;;19.60
20289;BMP180;10303;51.960;8.372;2022-09-09T05:48:50;99793.00;;;19.60
20289;BMP180;10303;51.960;8.372;2022-09-09T05:51:28;99791.00;;;19.60
20289;BMP180;10303;51.960;8.372;2022-09-09T05:54:21;99805.00;;;19.70
20289;BMP180;10303;51.960;8.372;2022-09-09T05:56:51;99800.00;;;19.80
20289;BMP180;10303;51.960;8.372;2022-09-09T05:59:20;99823.00;;;19.80
20289;BMP180;10303;51.960;8.372;2022-09-09T06:02:09;99819.00;;;19.80
20289;BMP180;10303;51.960;8.372;2022-09-09T06:04:38;99807.00;;;19.90
20289;BMP180;10303;51.960;8.372;2022-09-09T06:07:06;99799.00;;;19.90
20289;BMP180;10303;51.960;8.372;2022-09-09T06:09:34;99799.00;;;20.00
20289;BMP180;10303;51.960;8.372;2022-09-09T06:27:33;99796.00;;;20.20
20289;BMP180;10303;51.960;8.372;2022-09-09T06:29:59;99788.00;;;20.20
20289;BMP180;10303;51.960;8.372;2022-09-09T06:32:46;99791.00;;;20.20
20289;BMP180;10303;51.960;8.372;2022-09-09T06:35:27;99809.00;;;20.30
20289;BMP180;10303;51.960;8.372;2022-09-09T06:37:56;99800.00;;;20.30
20289;BMP180;10303;51.960;8.372;2022-09-09T06:40:35;99792.00;;;20.40
20289;BMP180;10303;51.960;8.372;2022-09-09T06:43:42;99796.00;;;20.40
20289;BMP180;10303;51.960;8.372;2022-09-09T07:00:23;99818.00;;;20.70
20289;BMP180;10303;51.960;8.372;2022-09-09T07:02:51;99817.00;;;20.70
20289;BMP180;10303;51.960;8.372;2022-09-09T07:05:17;99808.00;;;20.80
20289;BMP180;10303;51.960;8.372;2022-09-09T07:07:45;99827.00;;;20.80
20289;BMP180;10303;51.960;8.372;2022-09-09T07:10:13;99827.00;;;20.90
20289;BMP180;10303;51.960;8.372;2022-09-09T07:12:40;99834.00;;;20.90
20289;BMP180;10303;51.960;8.372;2022-09-09T07:15:10;99810.00;;;20.90
20289;BMP180;10303;51.960;8.372;2022-09-09T07:17:36;99819.00;;;20.90
20289;BMP180;10303;51.960;8.372;2022-09-09T07:20:03;99834.00;;;21.00
20289;BMP180;10303;51.960;8.372;2022-09-09T07:22:35;99826.00;;;21.00
20289;BMP180;10303;51.960;8.372;2022-09-09T07:25:02;99826.00;;;21.00
20289;BMP180;10303;51.960;8.372;2022-09-09T07:27:28;99825.00;;;21.00
20289;BMP180;10303;51.960;8.372;2022-09-09T07:29:55;99813.00;;;21.10
20289;BMP180;10303;51.960;8.372;2022-09-09T07:32:23;99824.00;;;21.10
20289;BMP180;10303;51.960;8.372;2022-09-09T07:34:52;99818.00;;;21.10
20289;BMP180;10303;51.960;8.372;2022-09-09T07:37:26;99806.00;;;21.20
20289;BMP180;10303;51.960;8.372;2022-09-09T07:39:54;99832.00;;;21.30
20289;BMP180;10303;51.960;8.372;2022-09-09T08:02:00;99827.00;;;21.60
20289;BMP180;10303;51.960;8.372;2022-09-09T08:05:06;99826.00;;;21.50
20289;BMP180;10303;51.960;8.372;2022-09-09T08:07:33;99829.00;;;21.70
20289;BMP180;10303;51.960;8.372;2022-09-09T08:10:25;99825.00;;;21.70
20289;BMP180;10303;51.960;8.372;2022-09-09T08:27:28;99824.00;;;22.40
20289;BMP180;10303;51.960;8.372;2022-09-09T08:29:55;99827.00;;;22.50
20289;BMP180;10303;51.960;8.372;2022-09-09T08:32:23;99825.00;;;22.50
20289;BMP180;10303;51.960;8.372;2022-09-09T08:34:50;99826.00;;;22.60
20289;BMP180;10303;51.960;8.372;2022-09-09T08:37:22;99835.00;;;22.70
20289;BMP180;10303;51.960;8.372;2022-09-09T08:40:40;99845.00;;;22.70
20289;BMP180;10303;51.960;8.372;2022-09-09T08:43:12;99848.00;;;22.80
20289;BMP180;10303;51.960;8.372;2022-09-09T08:46:42;99846.00;;;22.90
20289;BMP180;10303;51.960;8.372;2022-09-09T08:53:29;99847.00;;;23.10
20289;BMP180;10303;51.960;8.372;2022-09-09T08:56:21;99854.00;;;23.10
20289;BMP180;10303;51.960;8.372;2022-09-09T08:59:04;99844.00;;;23.10
20289;BMP180;10303;51.960;8.372;2022-09-09T09:02:21;99862.00;;;23.00
20289;BMP180;10303;51.960;8.372;2022-09-09T09:11:55;99862.00;;;22.90
20289;BMP180;10303;51.960;8.372;2022-09-09T09:14:37;99868.00;;;23.00
20289;BMP180;10303;51.960;8.372;2022-09-09T09:17:14;99857.00;;;23.00
20289;BMP180;10303;51.960;8.372;2022-09-09T09:19:49;99850.00;;;23.00
20289;BMP180;10303;51.960;8.372;2022-09-09T09:23:23;99869.00;;;23.10
20289;BMP180;10303;51.960;8.372;2022-09-09T09:25:55;99863.00;;;23.30
20289;BMP180;10303;51.960;8.372;2022-09-09T09:28:45;99869.00;;;23.40
20289;BMP180;10303;51.960;8.372;2022-09-09T09:31:18;99862.00;;;23.70
20289;BMP180;10303;51.960;8.372;2022-09-09T09:51:33;99851.00;;;25.20
20289;BMP180;10303;51.960;8.372;2022-09-09T09:54:39;99839.00;;;25.30
20289;BMP180;10303;51.960;8.372;2022-09-09T09:57:16;99850.00;;;25.50
20289;BMP180;10303;51.960;8.372;2022-09-09T09:59:46;99871.00;;;25.70
20289;BMP180;10303;51.960;8.372;2022-09-09T10:02:48;99852.00;;;25.90
20289;BMP180;10303;51.960;8.372;2022-09-09T10:05:26;99865.00;;;26.10
20289;BMP180;10303;51.960;8.372;2022-09-09T10:08:13;99858.00;;;26.10
20289;BMP180;10303;51.960;8.372;2022-09-09T10:14:32;99863.00;;;26.20
20289;BMP180;10303;51.960;8.372;2022-09-09T10:17:44;99866.00;;;26.30
20289;BMP180;10303;51.960;8.372;2022-09-09T10:27:02;99878.00;;;26.80
20289;BMP180;10303;51.960;8.372;2022-09-09T10:33:13;99866.00;;;26.70
20289;BMP180;10303;51.960;8.372;2022-09-09T10:36:25;99858.00;;;26.70
20289;BMP180;10303;51.960;8.372;2022-09-09T10:42:12;99868.00;;;26.80
20289;BMP180;10303;51.960;8.372;2022-09-09T10:52:01;99854.00;;;27.00
20289;BMP180;10303;51.960;8.372;2022-09-09T10:59:56;99840.00;;;27.50
20289;BMP180;10303;51.960;8.372;2022-09-09T11:02:31;99847.00;;;27.60
20289;BMP180;10303;51.960;8.372;2022-09-09T11:05:21;99846.00;;;27.70
20289;BMP180;10303;51.960;8.372;2022-09-09T11:11:06;99846.00;;;27.70
20289;BMP180;10303;51.960;8.372;2022-09-09T11:13:54;99839.00;;;27.80
20289;BMP180;10303;51.960;8.372;2022-09-09T11:16:49;99837.00;;;27.90
20289;BMP180;10303;51.960;8.372;2022-09-09T11:19:43;99852.00;;;27.90
20289;BMP180;10303;51.960;8.372;2022-09-09T11:26:18;99844.00;;;28.00
20289;BMP180;10303;51.960;8.372;2022-09-09T11:47:31;99822.00;;;28.20
20289;BMP180;10303;51.960;8.372;2022-09-09T12:02:48;99824.00;;;29.00
20289;BMP180;10303;51.960;8.372;2022-09-09T12:05:18;99827.00;;;29.20
20289;BMP180;10303;51.960;8.372;2022-09-09T12:11:09;99820.00;;;29.40
20289;BMP180;10303;51.960;8.372;2022-09-09T12:13:35;99828.00;;;29.50
20289;BMP180;10303;51.960;8.372;2022-09-09T12:16:03;99834.00;;;29.60
20289;BMP180;10303;51.960;8.372;2022-09-09T12:18:38;99831.00;;;29.60
20289;BMP180;10303;51.960;8.372;2022-09-09T12:21:40;99829.00;;;29.60
20289;BMP180;10303;51.960;8.372;2022-09-09T12:32:11;99820.00;;;29.70
20289;BMP180;10303;51.960;8.372;2022-09-09T12:35:09;99824.00;;;29.70
20289;BMP180;10303;51.960;8.372;2022-09-09T12:38:14;99809.00;;;29.60
20289;BMP180;10303;51.960;8.372;2022-09-09T12:41:28;99818.00;;;29.50
20289;BMP180;10303;51.960;8.372;2022-09-09T12:48:08;99826.00;;;29.10
20289;BMP180;10303;51.960;8.372;2022-09-09T12:51:00;99821.00;;;29.10
20289;BMP180;10303;51.960;8.372;2022-09-09T12:53:35;99824.00;;;29.20
20289;BMP180;10303;51.960;8.372;2022-09-09T12:56:08;99825.00;;;29.20
20289;BMP180;10303;51.960;8.372;2022-09-09T12:58:38;99835.00;;;29.10
20289;BMP180;10303;51.960;8.372;2022-09-09T13:01:06;99826.00;;;28.90
20289;BMP180;10303;51.960;8.372;2022-09-09T13:03:43;99826.00;;;28.70
20289;BMP180;10303;51.960;8.372;2022-09-09T13:06:23;99820.00;;;28.40
20289;BMP180;10303;51.960;8.372;2022-09-09T13:09:02;99826.00;;;28.20
20289;BMP180;10303;51.960;8.372;2022-09-09T13:11:50;99836.00;;;27.90
20289;BMP180;10303;51.960;8.372;2022-09-09T13:35:28;99807.00;;;26.90
20289;BMP180;10303;51.960;8.372;2022-09-09T13:37:57;99812.00;;;26.90
20289;BMP180;10303;51.960;8.372;2022-09-09T13:40:28;99799.00;;;26.80
20289;BMP180;10303;51.960;8.372;2022-09-09T13:43:18;99805.00;;;26.70
20289;BMP180;10303;51.960;8.372;2022-09-09T13:46:28;99790.00;;;26.80
20289;BMP180;10303;51.960;8.372;2022-09-09T13:48:59;99795.00;;;26.80
20289;BMP180;10303;51.960;8.372;2022-09-09T13:52:02;99796.00;;;26.80
20289;BMP180;10303;51.960;8.372;2022-09-09T13:55:03;99787.00;;;26.90
20289;BMP180;10303;51.960;8.372;2022-09-09T13:57:29;99789.00;;;26.80
20289;BMP180;10303;51.960;8.372;2022-09-09T13:59:55;99785.00;;;26.70
20289;BMP180;10303;51.960;8.372;2022-09-09T14:02:22;99785.00;;;26.70
20289;BMP180;10303;51.960;8.372;2022-09-09T14:04:50;99799.00;;;26.70
20289;BMP180;10303;51.960;8.372;2022-09-09T14:07:25;99791.00;;;26.60
20289;BMP180;10303;51.960;8.372;2022-09-09T14:09:54;99786.00;;;26.60
20289;BMP180;10303;51.960;8.372;2022-09-09T14:12:20;99776.00;;;26.60
20289;BMP180;10303;51.960;8.372;2022-09-09T14:15:04;99779.00;;;26.60
20289;BMP180;10303;51.960;8.372;2022-09-09T14:18:02;99778.00;;;26.50
20289;BMP180;10303;51.960;8.372;2022-09-09T14:20:44;99788.00;;;26.60
20289;BMP180;10303;51.960;8.372;2022-09-09T14:23:16;99781.00;;;26.60
20289;BMP180;10303;51.960;8.372;2022-09-09T14:26:04;99776.00;;;26.50
20289;BMP180;10303;51.960;8.372;2022-09-09T14:28:32;99789.00;;;26.60
20289;BMP180;10303;51.960;8.372;2022-09-09T14:31:04;99785.00;;;26.50
20289;BMP180;10303;51.960;8.372;2022-09-09T14:33:32;99784.00;;;26.50
20289;BMP180;10303;51.960;8.372;2022-09-09T14:36:03;99786.00;;;26.50
20289;BMP180;10303;51.960;8.372;2022-09-09T14:38:33;99793.00;;;26.50
20289;BMP180;10303;51.960;8.372;2022-09-09T14:41:03;99792.00;;;26.40
20289;BMP180;10303;51.960;8.372;2022-09-09T14:43:29;99789.00;;;26.40
20289;BMP180;10303;51.960;8.372;2022-09-09T14:46:20;99800.00;;;26.30
20289;BMP180;10303;51.960;8.372;2022-09-09T14:48:47;99798.00;;;26.30
20289;BMP180;10303;51.960;8.372;2022-09-09T14:51:30;99791.00;;;26.20
20289;BMP180;10303;51.960;8.372;2022-09-09T14:53:59;99793.00;;;26.20
20289;BMP180;10303;51.960;8.372;2022-09-09T14:56:29;99793.00;;;26.10
20289;BMP180;10303;51.960;8.372;2022-09-09T14:58:57;99787.00;;;26.10
20289;BMP180;10303;51.960;8.372;2022-09-09T15:01:25;99784.00;;;26.10
20289;BMP180;10303;51.960;8.372;2022-09-09T15:04:20;99776.00;;;25.90
20289;BMP180;10303;51.960;8.372;2022-09-09T15:06:46;99788.00;;;25.90
20289;BMP180;10303;51.960;8.372;2022-09-09T15:09:15;99787.00;;;25.90
20289;BMP180;10303;51.960;8.372;2022-09-09T15:11:41;99795.00;;;25.80
20289;BMP180;10303;51.960;8.372;2022-09-09T15:14:09;99788.00;;;25.80
20289;BMP180;10303;51.960;8.372;2022-09-09T15:16:40;99791.00;;;25.80
20289;BMP180;10303;51.960;8.372;2022-09-09T15:19:07;99794.00;;;25.80
20289;BMP180;10303;51.960;8.372;2022-09-09T15:21:37;99812.00;;;25.70
20289;BMP180;10303;51.960;8.372;2022-09-09T15:24:07;99804.00;;;25.70
20289;BMP180;10303;51.960;8.372;2022-09-09T15:26:34;99806.00;;;25.70
20289;BMP180;10303;51.960;8.372;2022-09-09T15:29:04;99795.00;;;25.70
20289;BMP180;10303;51.960;8.372;2022-09-09T15:31:31;99798.00;;;25.60
20289;BMP180;10303;51.960;8.372;2022-09-09T15:34:10;99805.00;;;25.50
20289;BMP180;10303;51.960;8.372;2022-09-09T15:36:41;99791.00;;;25.50
20289;BMP180;10303;51.960;8.372;2022-09-09T15:39:11;99803.00;;;25.40
20289;BMP180;10303;51.960;8.372;2022-09-09T15:41:43;99799.00;;;25.30
20289;BMP180;10303;51.960;8.372;2022-09-09T15:44:10;99799.00;;;25.30
20289;BMP180;10303;51.960;8.372;2022-09-09T15:46:45;99793.00;;;25.20
20289;BMP180;10303;51.960;8.372;2022-09-09T15:49:18;99786.00;;;25.10
20289;BMP180;10303;51.960;8.372;2022-09-09T15:51:53;99782.00;;;25.00
20289;BMP180;10303;51.960;8.372;2022-09-09T15:54:22;99787.00;;;25.10
20289;BMP180;10303;51.960;8.372;2022-09-09T15:56:58;99788.00;;;25.00
20289;BMP180;10303;51.960;8.372;2022-09-09T15:59:27;99785.00;;;25.00
20289;BMP180;10303;51.960;8.372;2022-09-09T16:01:55;99779.00;;;25.00
20289;BMP180;10303;51.960;8.372;2022-09-09T16:04:23;99779.00;;;25.00
20289;BMP180;10303;51.960;8.372;2022-09-09T16:06:59;99785.00;;;24.90
20289;BMP180;10303;51.960;8.372;2022-09-09T16:09:27;99788.00;;;25.00
20289;BMP180;10303;51.960;8.372;2022-09-09T16:12:00;99793.00;;;25.00
20289;BMP180;10303;51.960;8.372;2022-09-09T16:14:27;99789.00;;;25.00
20289;BMP180;10303;51.960;8.372;2022-09-09T16:16:56;99795.00;;;25.00
20289;BMP180;10303;51.960;8.372;2022-09-09T16:19:23;99788.00;;;25.00
20289;BMP180;10303;51.960;8.372;2022-09-09T16:21:49;99787.00;;;25.10
20289;BMP180;10303;51.960;8.372;2022-09-09T16:24:18;99782.00;;;25.00
20289;BMP180;10303;51.960;8.372;2022-09-09T16:26:51;99787.00;;;25.00
20289;BMP180;10303;51.960;8.372;2022-09-09T16:29:19;99779.00;;;25.00
20289;BMP180;10303;51.960;8.372;2022-09-09T16:31:46;99773.00;;;25.00
20289;BMP180;10303;51.960;8.372;2022-09-09T16:34:14;99791.00;;;24.90
20289;BMP180;10303;51.960;8.372;2022-09-09T16:36:46;99798.00;;;24.90
20289;BMP180;10303;51.960;8.372;2022-09-09T16:39:17;99799.00;;;24.90
20289;BMP180;10303;51.960;8.372;2022-09-09T16:41:45;99821.00;;;24.80
20289;BMP180;10303;51.960;8.372;2022-09-09T16:44:16;99820.00;;;24.80
20289;BMP180;10303;51.960;8.372;2022-09-09T16:46:45;99829.00;;;24.80
20289;BMP180;10303;51.960;8.372;2022-09-09T16:49:15;99831.00;;;24.70
20289;BMP180;10303;51.960;8.372;2022-09-09T16:52:02;99837.00;;;24.60
20289;BMP180;10303;51.960;8.372;2022-09-09T16:54:29;99837.00;;;24.60
20289;BMP180;10303;51.960;8.372;2022-09-09T16:56:56;99853.00;;;24.50
20289;BMP180;10303;51.960;8.372;2022-09-09T16:59:23;99843.00;;;24.40
20289;BMP180;10303;51.960;8.372;2022-09-09T17:01:52;99850.00;;;24.30
20289;BMP180;10303;51.960;8.372;2022-09-09T17:07:34;99840.00;;;24.00
20289;BMP180;10303;51.960;8.372;2022-09-09T17:10:02;99842.00;;;24.00
20289;BMP180;10303;51.960;8.372;2022-09-09T17:12:59;99845.00;;;23.80
20289;BMP180;10303;51.960;8.372;2022-09-09T17:15:54;99862.00;;;23.70
20289;BMP180;10303;51.960;8.372;2022-09-09T17:18:21;99855.00;;;23.70
20289;BMP180;10303;51.960;8.372;2022-09-09T17:31:46;99874.00;;;23.20
20289;BMP180;10303;51.960;8.372;2022-09-09T17:34:13;99876.00;;;23.20
20289;BMP180;10303;51.960;8.372;2022-09-09T17:36:39;99879.00;;;23.10
20289;BMP180;10303;51.960;8.372;2022-09-09T17:39:06;99887.00;;;23.10
20289;BMP180;10303;51.960;8.372;2022-09-09T17:41:39;99884.00;;;23.00
20289;BMP180;10303;51.960;8.372;2022-09-09T17:44:07;99888.00;;;22.90
20289;BMP180;10303;51.960;8.372;2022-09-09T17:46:38;99889.00;;;22.80
20289;BMP180;10303;51.960;8.372;2022-09-09T17:49:09;99895.00;;;22.80
20289;BMP180;10303;51.960;8.372;2022-09-09T17:51:45;99886.00;;;22.70
20289;BMP180;10303;51.960;8.372;2022-09-09T17:54:18;99897.00;;;22.60
20289;BMP180;10303;51.960;8.372;2022-09-09T17:56:47;99897.00;;;22.60
20289;BMP180;10303;51.960;8.372;2022-09-09T17:59:16;99894.00;;;22.50
20289;BMP180;10303;51.960;8.372;2022-09-09T18:01:46;99890.00;;;22.50
20289;BMP180;10303;51.960;8.372;2022-09-09T18:04:20;99890.00;;;22.40
20289;BMP180;10303;51.960;8.372;2022-09-09T18:06:50;99886.00;;;22.40
20289;BMP180;10303;51.960;8.372;2022-09-09T18:09:22;99881.00;;;22.30
20289;BMP180;10303;51.960;8.372;2022-09-09T18:11:54;99885.00;;;22.30
20289;BMP180;10303;51.960;8.372;2022-09-09T18:14:26;99894.00;;;22.30
20289;BMP180;10303;51.960;8.372;2022-09-09T18:16:56;99887.00;;;22.20
20289;BMP180;10303;51.960;8.372;2022-09-09T18:19:27;99903.00;;;22.10
20289;BMP180;10303;51.960;8.372;2022-09-09T18:21:57;99888.00;;;22.10
20289;BMP180;10303;51.960;8.372;2022-09-09T18:24:24;99894.00;;;22.10
20289;BMP180;10303;51.960;8.372;2022-09-09T18:26:51;99901.00;;;22.10
20289;BMP180;10303;51.960;8.372;2022-09-09T18:29:21;99901.00;;;22.00
20289;BMP180;10303;51.960;8.372;2022-09-09T18:31:48;99899.00;;;22.00
20289;BMP180;10303;51.960;8.372;2022-09-09T18:34:17;99909.00;;;22.00
20289;BMP180;10303;51.960;8.372;2022-09-09T18:36:50;99903.00;;;21.90
20289;BMP180;10303;51.960;8.372;2022-09-09T18:39:27;99891.00;;;21.90
20289;BMP180;10303;51.960;8.372;2022-09-09T18:41:57;99897.00;;;21.90
20289;BMP180;10303;51.960;8.372;2022-09-09T18:44:31;99902.00;;;21.80
20289;BMP180;10303;51.960;8.372;2022-09-09T18:46:57;99903.00;;;21.80
20289;BMP180;10303;51.960;8.372;2022-09-09T18:49:24;99901.00;;;21.80
20289;BMP180;10303;51.960;8.372;2022-09-09T18:51:51;99909.00;;;21.80
20289;BMP180;10303;51.960;8.372;2022-09-09T18:54:21;99912.00;;;21.80
20289;BMP180;10303;51.960;8.372;2022-09-09T18:56:49;99910.00;;;21.80
20289;BMP180;10303;51.960;8.372;2022-09-09T18:59:18;99907.00;;;21.70
20289;BMP180;10303;51.960;8.372;2022-09-09T19:01:47;99911.00;;;21.70
20289;BMP180;10303;51.960;8.372;2022-09-09T19:04:14;99911.00;;;21.60
20289;BMP180;10303;51.960;8.372;2022-09-09T19:06:46;99917.00;;;21.60
20289;BMP180;10303;51.960;8.372;2022-09-09T19:09:17;99918.00;;;21.50
20289;BMP180;10303;51.960;8.372;2022-09-09T19:11:46;99915.00;;;21.60
20289;BMP180;10303;51.960;8.372;2022-09-09T19:14:15;99901.00;;;21.50
20289;BMP180;10303;51.960;8.372;2022-09-09T19:16:43;99910.00;;;21.50
20289;BMP180;10303;51.960;8.372;2022-09-09T19:19:24;99904.00;;;21.40
20289;BMP180;10303;51.960;8.372;2022-09-09T19:21:50;99910.00;;;21.40
20289;BMP180;10303;51.960;8.372;2022-09-09T19:24:23;99908.00;;;21.40